createdAt,value
2022-08-26T00:00:00.610Z,1014.13
2022-08-26T00:01:00.246Z,1014.14
2022-08-26T00:01:59.897Z,1014.14
2022-08-26T00:03:00.119Z,1014.14
2022-08-26T00:03:59.981Z,1014.15
2022-08-26T00:04:59.743Z,1014.1
2022-08-26T00:06:01.497Z,1014.17
2022-08-26T00:07:01.178Z,1014.1
2022-08-26T00:08:01.279Z,1014.15
2022-08-26T00:09:00.982Z,1014.13
2022-08-26T00:10:00.607Z,1014.1
2022-08-26T00:11:00.283Z,1014.13
2022-08-26T00:12:00.609Z,1014.11
2022-08-26T00:13:00.332Z,1014.14
2022-08-26T00:14:00.154Z,1014.12
2022-08-26T00:14:59.899Z,1014.09
2022-08-26T00:16:00.020Z,1014.09
2022-08-26T00:16:59.764Z,1014.07
2022-08-26T00:18:01.581Z,1014.07
2022-08-26T00:19:00.720Z,1014.05
2022-08-26T00:20:00.459Z,1014.04
2022-08-26T00:21:00.127Z,1013.98
2022-08-26T00:22:01.230Z,1014.04
2022-08-26T00:23:01.674Z,1013.99
2022-08-26T00:24:00.982Z,1013.99
2022-08-26T00:25:00.884Z,1013.99
2022-08-26T00:26:00.588Z,1013.98
2022-08-26T00:27:01.303Z,1013.98
2022-08-26T00:28:01.196Z,1013.97
2022-08-26T00:29:01.085Z,1013.99
2022-08-26T00:30:00.931Z,1013.95
2022-08-26T00:31:00.818Z,1013.99
2022-08-26T00:32:00.702Z,1013.96
2022-08-26T00:33:00.509Z,1013.97
2022-08-26T00:34:01.262Z,1013.93
2022-08-26T00:35:01.049Z,1013.89
2022-08-26T00:36:00.949Z,1013.91
2022-08-26T00:37:00.665Z,1013.92
2022-08-26T00:38:00.332Z,1013.91
2022-08-26T00:39:01.086Z,1013.89
2022-08-26T00:40:01.161Z,1013.86
2022-08-26T00:41:00.812Z,1013.87
2022-08-26T00:42:00.621Z,1013.86
2022-08-26T00:43:00.378Z,1013.89
2022-08-26T00:44:00.110Z,1013.86
2022-08-26T00:45:00.408Z,1013.87
2022-08-26T00:46:00.159Z,1013.91
2022-08-26T00:47:01.327Z,1013.89
2022-08-26T00:48:01.076Z,1013.85
2022-08-26T00:49:01.892Z,1013.86
2022-08-26T00:50:01.492Z,1013.82
2022-08-26T00:51:00.782Z,1013.87
2022-08-26T00:52:00.453Z,1013.82
2022-08-26T00:53:00.158Z,1013.81
2022-08-26T00:53:59.942Z,1013.77
2022-08-26T00:54:59.654Z,1013.82
2022-08-26T00:56:01.388Z,1013.78
2022-08-26T00:57:01.194Z,1013.75
2022-08-26T00:58:01.095Z,1013.73
2022-08-26T00:59:01.291Z,1013.76
2022-08-26T01:00:00.809Z,1013.74
2022-08-26T01:01:00.640Z,1013.7
2022-08-26T01:02:00.509Z,1013.75
2022-08-26T01:03:01.431Z,1013.71
2022-08-26T01:04:01.588Z,1013.68
2022-08-26T01:05:01.353Z,1013.68
2022-08-26T01:06:01.149Z,1013.71
2022-08-26T01:07:00.797Z,1013.67
2022-08-26T01:08:00.611Z,1013.72
2022-08-26T01:09:00.664Z,1013.71
2022-08-26T01:10:00.381Z,1013.66
2022-08-26T01:11:00.478Z,1013.68
2022-08-26T01:12:00.221Z,1013.63
2022-08-26T01:13:00.086Z,1013.67
2022-08-26T01:13:59.841Z,1013.67
2022-08-26T01:15:01.635Z,1013.68
2022-08-26T01:16:01.585Z,1013.67
2022-08-26T01:17:00.933Z,1013.69
2022-08-26T01:18:00.742Z,1013.73
2022-08-26T01:19:01.140Z,1013.69
2022-08-26T01:20:01.399Z,1013.74
2022-08-26T01:21:01.159Z,1013.71
2022-08-26T01:22:00.882Z,1013.71
2022-08-26T01:23:01.480Z,1013.7
2022-08-26T01:24:00.696Z,1013.8
2022-08-26T01:25:00.422Z,1013.8
2022-08-26T01:26:02.599Z,1013.81
2022-08-26T01:27:00.989Z,1013.79
2022-08-26T01:28:04.513Z,1013.81
2022-08-26T01:29:00.675Z,1013.82
2022-08-26T01:30:01.145Z,1013.84
2022-08-26T01:31:01.141Z,1013.81
2022-08-26T01:32:00.939Z,1013.83
2022-08-26T01:33:08.698Z,1013.85
2022-08-26T01:34:01.244Z,1013.84
2022-08-26T01:35:00.624Z,1013.85
2022-08-26T01:36:00.471Z,1013.79
2022-08-26T01:37:00.246Z,1013.84
2022-08-26T01:38:10.488Z,1013.82
2022-08-26T01:39:01.073Z,1013.79
2022-08-26T01:40:01.220Z,1013.79
2022-08-26T01:41:01.024Z,1013.72
2022-08-26T01:42:03.173Z,1013.74
2022-08-26T01:43:15.352Z,1013.72
2022-08-26T01:44:01.481Z,1013.7
2022-08-26T01:45:01.337Z,1013.72
2022-08-26T01:46:01.440Z,1013.76
2022-08-26T01:47:01.130Z,1013.7
2022-08-26T01:48:00.738Z,1013.72
2022-08-26T01:49:01.020Z,1013.75
2022-08-26T01:50:00.757Z,1013.75
2022-08-26T01:51:00.433Z,1013.75
2022-08-26T01:52:00.128Z,1013.74
2022-08-26T01:52:59.826Z,1013.72
2022-08-26T01:54:01.763Z,1013.72
2022-08-26T01:55:01.593Z,1013.68
2022-08-26T01:56:01.277Z,1013.68
2022-08-26T01:57:00.980Z,1013.69
2022-08-26T01:58:01.007Z,1013.72
2022-08-26T01:59:00.651Z,1013.72
2022-08-26T02:00:00.628Z,1013.71
2022-08-26T02:01:00.309Z,1013.66
2022-08-26T02:02:01.229Z,1013.7
2022-08-26T02:03:01.064Z,1013.68
2022-08-26T02:04:01.837Z,1013.72
2022-08-26T02:05:00.837Z,1013.69
2022-08-26T02:06:00.964Z,1013.69
2022-08-26T02:07:00.651Z,1013.68
2022-08-26T02:08:00.364Z,1013.66
2022-08-26T02:09:00.031Z,1013.7
2022-08-26T02:10:01.016Z,1013.71
2022-08-26T02:11:00.668Z,1013.73
2022-08-26T02:12:01.108Z,1013.67
2022-08-26T02:13:01.378Z,1013.71
2022-08-26T02:14:01.208Z,1013.67
2022-08-26T02:15:00.870Z,1013.69
2022-08-26T02:16:00.699Z,1013.71
2022-08-26T02:17:00.611Z,1013.68
2022-08-26T02:18:00.322Z,1013.7
2022-08-26T02:19:00.017Z,1013.66
2022-08-26T02:20:00.242Z,1013.68
2022-08-26T02:20:59.975Z,1013.67
2022-08-26T02:22:00.373Z,1013.7
2022-08-26T02:23:00.688Z,1013.7
2022-08-26T02:24:00.609Z,1013.68
2022-08-26T02:25:00.371Z,1013.65
2022-08-26T02:26:01.810Z,1013.66
2022-08-26T02:27:01.469Z,1013.63
2022-08-26T02:28:01.183Z,1013.64
2022-08-26T02:29:01.208Z,1013.65
2022-08-26T02:30:00.690Z,1013.65
2022-08-26T02:31:02.675Z,1013.62
2022-08-26T02:32:00.809Z,1013.62
2022-08-26T02:33:00.937Z,1013.65
2022-08-26T02:34:00.731Z,1013.61
2022-08-26T02:35:00.432Z,1013.59
2022-08-26T02:36:00.131Z,1013.55
2022-08-26T02:37:00.110Z,1013.62
2022-08-26T02:38:00.643Z,1013.59
2022-08-26T02:39:01.351Z,1013.62
2022-08-26T02:40:01.479Z,1013.57
2022-08-26T02:41:01.360Z,1013.56
2022-08-26T02:42:00.996Z,1013.54
2022-08-26T02:43:00.775Z,1013.54
2022-08-26T02:44:00.697Z,1013.52
2022-08-26T02:45:00.342Z,1013.52
2022-08-26T02:46:01.910Z,1013.53
2022-08-26T02:47:01.507Z,1013.51
2022-08-26T02:48:01.125Z,1013.53
2022-08-26T02:49:01.342Z,1013.51
2022-08-26T02:50:01.030Z,1013.51
2022-08-26T02:51:00.739Z,1013.5
2022-08-26T02:52:00.428Z,1013.5
2022-08-26T02:53:01.438Z,1013.52
2022-08-26T02:54:01.777Z,1013.51
2022-08-26T02:55:01.182Z,1013.49
2022-08-26T02:56:01.497Z,1013.52
2022-08-26T02:57:01.178Z,1013.46
2022-08-26T02:58:01.282Z,1013.44
2022-08-26T02:59:00.927Z,1013.48
2022-08-26T03:00:00.713Z,1013.48
2022-08-26T03:01:01.517Z,1013.4
2022-08-26T03:02:00.843Z,1013.39
2022-08-26T03:03:00.604Z,1013.38
2022-08-26T03:04:01.008Z,1013.4
2022-08-26T03:05:02.467Z,1013.37
2022-08-26T03:06:01.547Z,1013.37
2022-08-26T03:07:02.059Z,1013.37
2022-08-26T03:08:01.267Z,1013.4
2022-08-26T03:09:04.102Z,1013.37
2022-08-26T03:10:01.605Z,1013.39
2022-08-26T03:11:01.514Z,1013.39
2022-08-26T03:12:01.073Z,1013.41
2022-08-26T03:13:01.563Z,1013.41
2022-08-26T03:14:07.422Z,1013.43
2022-08-26T03:15:00.984Z,1013.45
2022-08-26T03:16:00.714Z,1013.41
2022-08-26T03:17:00.487Z,1013.42
2022-08-26T03:18:00.257Z,1013.41
2022-08-26T03:19:11.374Z,1013.41
2022-08-26T03:20:01.023Z,1013.39
2022-08-26T03:21:01.131Z,1013.42
2022-08-26T03:22:00.833Z,1013.39
2022-08-26T03:23:00.539Z,1013.34
2022-08-26T03:24:14.110Z,1013.34
2022-08-26T03:25:01.315Z,1013.35
2022-08-26T03:26:01.025Z,1013.39
2022-08-26T03:27:00.774Z,1013.36
2022-08-26T03:28:01.134Z,1013.33
2022-08-26T03:29:00.665Z,1013.34
2022-08-26T03:30:00.415Z,1013.33
2022-08-26T03:31:01.231Z,1013.35
2022-08-26T03:32:00.946Z,1013.33
2022-08-26T03:33:01.032Z,1013.37
2022-08-26T03:34:00.754Z,1013.36
2022-08-26T03:35:00.643Z,1013.35
2022-08-26T03:36:00.712Z,1013.3
2022-08-26T03:37:00.428Z,1013.33
2022-08-26T03:38:00.119Z,1013.33
2022-08-26T03:39:01.148Z,1013.34
2022-08-26T03:40:01.025Z,1013.31
2022-08-26T03:41:00.731Z,1013.32
2022-08-26T03:42:00.627Z,1013.34
2022-08-26T03:43:00.266Z,1013.38
2022-08-26T03:44:01.958Z,1013.37
2022-08-26T03:45:00.775Z,1013.38
2022-08-26T03:46:00.451Z,1013.39
2022-08-26T03:47:00.461Z,1013.35
2022-08-26T03:48:00.187Z,1013.41
2022-08-26T03:49:01.122Z,1013.4
2022-08-26T03:50:00.832Z,1013.42
2022-08-26T03:51:00.730Z,1013.39
2022-08-26T03:52:01.453Z,1013.4
2022-08-26T03:53:00.856Z,1013.38
2022-08-26T03:54:00.500Z,1013.35
2022-08-26T03:55:01.074Z,1013.37
2022-08-26T03:56:01.271Z,1013.34
2022-08-26T03:57:00.855Z,1013.33
2022-08-26T03:58:00.664Z,1013.36
2022-08-26T03:59:01.144Z,1013.36
2022-08-26T04:00:01.446Z,1013.35
2022-08-26T04:01:00.998Z,1013.34
2022-08-26T04:02:00.879Z,1013.34
2022-08-26T04:03:00.584Z,1013.34
2022-08-26T04:04:00.853Z,1013.38
2022-08-26T04:05:00.662Z,1013.4
2022-08-26T04:06:00.416Z,1013.38
2022-08-26T04:07:00.048Z,1013.39
2022-08-26T04:07:59.794Z,1013.4
2022-08-26T04:09:01.730Z,1013.41
2022-08-26T04:10:01.462Z,1013.4
2022-08-26T04:11:01.364Z,1013.39
2022-08-26T04:12:01.270Z,1013.38
2022-08-26T04:13:01.335Z,1013.38
2022-08-26T04:14:00.882Z,1013.36
2022-08-26T04:15:00.670Z,1013.36
2022-08-26T04:16:00.696Z,1013.38
2022-08-26T04:17:01.301Z,1013.32
2022-08-26T04:18:00.988Z,1013.35
2022-08-26T04:19:00.636Z,1013.37
2022-08-26T04:20:00.698Z,1013.39
2022-08-26T04:21:00.455Z,1013.39
2022-08-26T04:22:00.234Z,1013.37
2022-08-26T04:23:00.780Z,1013.43
2022-08-26T04:24:00.488Z,1013.39
2022-08-26T04:25:01.464Z,1013.43
2022-08-26T04:26:01.373Z,1013.39
2022-08-26T04:27:01.051Z,1013.4
2022-08-26T04:28:01.172Z,1013.41
2022-08-26T04:29:00.778Z,1013.47
2022-08-26T04:30:00.695Z,1013.4
2022-08-26T04:31:00.690Z,1013.42
2022-08-26T04:32:00.723Z,1013.41
2022-08-26T04:33:01.746Z,1013.43
2022-08-26T04:34:01.313Z,1013.42
2022-08-26T04:35:01.128Z,1013.42
2022-08-26T04:36:00.958Z,1013.4
2022-08-26T04:37:00.923Z,1013.41
2022-08-26T04:38:00.734Z,1013.43
2022-08-26T04:39:00.426Z,1013.42
2022-08-26T04:40:00.245Z,1013.45
2022-08-26T04:41:00.143Z,1013.4
2022-08-26T04:41:59.862Z,1013.44
2022-08-26T04:43:00.801Z,1013.47
2022-08-26T04:44:00.702Z,1013.38
2022-08-26T04:45:00.367Z,1013.41
2022-08-26T04:46:00.157Z,1013.38
2022-08-26T04:47:00.751Z,1013.37
2022-08-26T04:48:00.471Z,1013.36
2022-08-26T04:49:00.196Z,1013.36
2022-08-26T04:50:01.854Z,1013.36
2022-08-26T04:51:01.121Z,1013.35
2022-08-26T04:52:01.176Z,1013.33
2022-08-26T04:53:00.808Z,1013.33
2022-08-26T04:54:00.446Z,1013.3
2022-08-26T04:55:04.095Z,1013.28
2022-08-26T04:56:01.140Z,1013.33
2022-08-26T04:57:01.017Z,1013.32
2022-08-26T04:58:00.703Z,1013.31
2022-08-26T04:59:00.369Z,1013.3
2022-08-26T05:00:06.275Z,1013.29
2022-08-26T05:01:01.289Z,1013.3
2022-08-26T05:02:00.986Z,1013.3
2022-08-26T05:03:01.419Z,1013.32
2022-08-26T05:04:01.191Z,1013.33
2022-08-26T05:05:07.210Z,1013.3
2022-08-26T05:06:00.901Z,1013.3
2022-08-26T05:07:02.742Z,1013.31
2022-08-26T05:08:00.628Z,1013.32
2022-08-26T05:09:00.459Z,1013.33
2022-08-26T05:10:11.441Z,1013.35
2022-08-26T05:11:01.148Z,1013.35
2022-08-26T05:12:01.193Z,1013.36
2022-08-26T05:13:00.870Z,1013.37
2022-08-26T05:14:02.276Z,1013.39
2022-08-26T05:15:10.906Z,1013.38
2022-08-26T05:16:01.527Z,1013.38
2022-08-26T05:17:00.574Z,1013.4
2022-08-26T05:18:01.202Z,1013.41
2022-08-26T05:19:00.598Z,1013.35
2022-08-26T05:20:13.801Z,1013.41
2022-08-26T05:21:01.202Z,1013.38
2022-08-26T05:22:00.900Z,1013.4
2022-08-26T05:23:00.605Z,1013.37
2022-08-26T05:24:00.304Z,1013.43
2022-08-26T05:25:00.004Z,1013.37
2022-08-26T05:26:00.404Z,1013.37
2022-08-26T05:27:00.496Z,1013.37
2022-08-26T05:28:00.523Z,1013.35
2022-08-26T05:29:00.244Z,1013.32
2022-08-26T05:29:59.861Z,1013.33
2022-08-26T05:31:01.016Z,1013.37
2022-08-26T05:32:00.978Z,1013.32
2022-08-26T05:33:01.019Z,1013.37
2022-08-26T05:34:03.689Z,1013.37
2022-08-26T05:35:01.411Z,1013.38
2022-08-26T05:36:00.593Z,1013.3
2022-08-26T05:37:00.304Z,1013.35
2022-08-26T05:38:00.674Z,1013.37
2022-08-26T05:39:00.414Z,1013.37
2022-08-26T05:40:01.516Z,1013.36
2022-08-26T05:41:01.117Z,1013.33
2022-08-26T05:42:00.845Z,1013.35
2022-08-26T05:43:00.855Z,1013.32
2022-08-26T05:44:00.952Z,1013.34
2022-08-26T05:45:00.643Z,1013.33
2022-08-26T05:46:00.617Z,1013.31
2022-08-26T05:47:01.260Z,1013.35
2022-08-26T05:48:01.509Z,1013.31
2022-08-26T05:49:01.439Z,1013.32
2022-08-26T05:50:01.101Z,1013.34
2022-08-26T05:51:00.782Z,1013.28
2022-08-26T05:52:00.482Z,1013.36
2022-08-26T05:53:00.195Z,1013.36
2022-08-26T05:53:59.848Z,1013.3
2022-08-26T05:55:00.557Z,1013.36
2022-08-26T05:56:00.231Z,1013.38
2022-08-26T05:56:59.954Z,1013.34
2022-08-26T05:57:59.668Z,1013.33
2022-08-26T05:59:00.692Z,1013.31
2022-08-26T06:00:00.336Z,1013.33
2022-08-26T06:01:00.978Z,1013.3
2022-08-26T06:02:00.709Z,1013.31
2022-08-26T06:03:00.623Z,1013.34
2022-08-26T06:04:01.575Z,1013.27
2022-08-26T06:05:01.299Z,1013.33
2022-08-26T06:06:00.963Z,1013.34
2022-08-26T06:07:01.405Z,1013.36
2022-08-26T06:08:00.745Z,1013.35
2022-08-26T06:09:00.916Z,1013.35
2022-08-26T06:10:28.200Z,1013.37
2022-08-26T06:11:01.061Z,1013.38
2022-08-26T06:12:01.447Z,1013.39
2022-08-26T06:13:04.545Z,1013.34
2022-08-26T06:14:03.968Z,1013.36
2022-08-26T06:15:01.161Z,1013.39
2022-08-26T06:16:00.784Z,1013.39
2022-08-26T06:17:00.561Z,1013.39
2022-08-26T06:18:00.415Z,1013.37
2022-08-26T06:19:00.442Z,1013.39
2022-08-26T06:20:00.775Z,1013.39
2022-08-26T06:21:00.788Z,1013.35
2022-08-26T06:22:00.482Z,1013.35
2022-08-26T06:23:00.285Z,1013.32
2022-08-26T06:23:59.999Z,1013.36
2022-08-26T06:25:00.519Z,1013.34
2022-08-26T06:26:00.604Z,1013.35
2022-08-26T06:27:00.448Z,1013.33
2022-08-26T06:28:00.184Z,1013.35
2022-08-26T06:29:01.700Z,1013.33
2022-08-26T06:30:01.387Z,1013.33
2022-08-26T06:31:02.296Z,1013.32
2022-08-26T06:32:01.366Z,1013.35
2022-08-26T06:33:01.083Z,1013.39
2022-08-26T06:34:00.961Z,1013.35
2022-08-26T06:35:00.785Z,1013.32
2022-08-26T06:36:01.465Z,1013.35
2022-08-26T06:37:01.954Z,1013.32
2022-08-26T06:38:01.419Z,1013.32
2022-08-26T06:39:01.182Z,1013.37
2022-08-26T06:40:00.973Z,1013.36
2022-08-26T06:41:05.350Z,1013.34
2022-08-26T06:42:00.678Z,1013.31
2022-08-26T06:43:01.044Z,1013.29
2022-08-26T06:44:01.289Z,1013.3
2022-08-26T06:45:01.944Z,1013.26
2022-08-26T06:46:09.204Z,1013.25
2022-08-26T06:47:00.650Z,1013.22
2022-08-26T06:48:00.360Z,1013.22
2022-08-26T06:49:00.977Z,1013.19
2022-08-26T06:50:00.669Z,1013.19
2022-08-26T06:51:12.454Z,1013.21
2022-08-26T06:52:00.886Z,1013.23
2022-08-26T06:53:00.794Z,1013.22
2022-08-26T06:54:00.505Z,1013.25
2022-08-26T06:55:00.189Z,1013.25
2022-08-26T06:55:59.899Z,1013.18
2022-08-26T06:56:59.583Z,1013.2
2022-08-26T06:58:01.645Z,1013.19
2022-08-26T06:59:01.556Z,1013.22
2022-08-26T07:00:00.995Z,1013.16
2022-08-26T07:01:09.122Z,1013.17
2022-08-26T07:02:01.941Z,1013.19
2022-08-26T07:03:01.730Z,1013.18
2022-08-26T07:04:01.016Z,1013.22
2022-08-26T07:05:00.690Z,1013.18
2022-08-26T07:06:00.321Z,1013.21
2022-08-26T07:07:00.077Z,1013.22
2022-08-26T07:07:59.750Z,1013.23
2022-08-26T07:09:01.416Z,1013.21
2022-08-26T07:10:01.140Z,1013.17
2022-08-26T07:11:01.061Z,1013.17
2022-08-26T07:12:00.873Z,1013.17
2022-08-26T07:13:00.520Z,1013.17
2022-08-26T07:14:00.330Z,1013.18
2022-08-26T07:15:00.785Z,1013.17
2022-08-26T07:16:03.131Z,1013.21
2022-08-26T07:17:02.305Z,1013.2
2022-08-26T07:18:01.278Z,1013.2
2022-08-26T07:19:01.224Z,1013.23
2022-08-26T07:20:00.975Z,1013.23
2022-08-26T07:21:01.015Z,1013.23
2022-08-26T07:22:00.638Z,1013.24
2022-08-26T07:23:00.376Z,1013.22
2022-08-26T07:24:01.754Z,1013.19
2022-08-26T07:25:01.536Z,1013.19
2022-08-26T07:26:00.946Z,1013.18
2022-08-26T07:27:00.749Z,1013.16
2022-08-26T07:28:00.768Z,1013.2
2022-08-26T07:29:00.930Z,1013.12
2022-08-26T07:30:00.582Z,1013.16
2022-08-26T07:31:00.912Z,1013.13
2022-08-26T07:32:00.660Z,1013.15
2022-08-26T07:33:00.344Z,1013.12
2022-08-26T07:34:00.047Z,1013.14
2022-08-26T07:35:00.199Z,1013.14
2022-08-26T07:35:59.850Z,1013.11
2022-08-26T07:37:00.672Z,1013.08
2022-08-26T07:38:00.668Z,1013.08
2022-08-26T07:39:00.698Z,1013.12
2022-08-26T07:40:00.458Z,1013.07
2022-08-26T07:41:00.999Z,1013.1
2022-08-26T07:42:01.130Z,1013.08
2022-08-26T07:43:00.963Z,1013.05
2022-08-26T07:44:00.689Z,1013.09
2022-08-26T07:45:00.379Z,1013.06
2022-08-26T07:46:00.262Z,1013.13
2022-08-26T07:47:00.207Z,1013.11
2022-08-26T07:47:59.833Z,1013.08
2022-08-26T07:49:01.856Z,1013.12
2022-08-26T07:50:00.962Z,1013.16
2022-08-26T07:51:00.761Z,1013.13
2022-08-26T07:52:00.479Z,1013.11
2022-08-26T07:53:00.124Z,1013.16
2022-08-26T07:54:00.531Z,1013.1
2022-08-26T07:55:00.173Z,1013.1
2022-08-26T07:55:59.877Z,1013.12
2022-08-26T07:56:59.687Z,1013.11
2022-08-26T07:58:01.428Z,1013.09
2022-08-26T07:59:01.475Z,1013.06
2022-08-26T08:00:01.480Z,1013.07
2022-08-26T08:01:01.619Z,1013.05
2022-08-26T08:02:01.289Z,1013.04
2022-08-26T08:03:00.948Z,1013.06
2022-08-26T08:04:00.576Z,1013
2022-08-26T08:05:00.665Z,1013.04
2022-08-26T08:06:00.459Z,1013.01
2022-08-26T08:07:00.497Z,1013.02
2022-08-26T08:08:26.365Z,1013
2022-08-26T08:09:01.315Z,1012.99
2022-08-26T08:10:01.037Z,1013.05
2022-08-26T08:11:00.706Z,1013.02
2022-08-26T08:12:02.432Z,1013
2022-08-26T08:13:01.446Z,1012.98
2022-08-26T08:14:01.345Z,1012.94
2022-08-26T08:15:00.745Z,1012.97
2022-08-26T08:16:01.514Z,1012.96
2022-08-26T08:17:05.161Z,1012.97
2022-08-26T08:18:01.093Z,1013
2022-08-26T08:19:00.780Z,1012.97
2022-08-26T08:20:00.578Z,1012.95
2022-08-26T08:21:20.931Z,1012.95
2022-08-26T08:22:17.139Z,1012.86
2022-08-26T08:23:01.179Z,1012.91
2022-08-26T08:24:00.786Z,1012.93
2022-08-26T08:25:00.598Z,1012.9
2022-08-26T08:26:01.309Z,1012.88
2022-08-26T08:27:12.078Z,1012.89
2022-08-26T08:28:01.447Z,1012.88
2022-08-26T08:29:01.134Z,1012.84
2022-08-26T08:30:00.963Z,1012.86
2022-08-26T08:31:00.803Z,1012.88
2022-08-26T08:32:15.377Z,1012.81
2022-08-26T08:33:01.889Z,1012.84
2022-08-26T08:34:01.588Z,1012.77
2022-08-26T08:35:00.965Z,1012.82
2022-08-26T08:36:00.659Z,1012.83
2022-08-26T08:37:00.382Z,1012.82
2022-08-26T08:38:00.002Z,1012.8
2022-08-26T08:39:01.198Z,1012.83
2022-08-26T08:40:00.934Z,1012.83
2022-08-26T08:41:00.721Z,1012.8
2022-08-26T08:42:01.138Z,1012.77
2022-08-26T08:43:01.342Z,1012.81
2022-08-26T08:44:01.233Z,1012.79
2022-08-26T08:45:00.872Z,1012.76
2022-08-26T08:46:00.643Z,1012.71
2022-08-26T08:47:00.999Z,1012.72
2022-08-26T08:48:00.755Z,1012.69
2022-08-26T08:49:00.671Z,1012.7
2022-08-26T08:50:00.343Z,1012.71
2022-08-26T08:51:00.151Z,1012.71
2022-08-26T08:52:00.041Z,1012.68
2022-08-26T08:52:59.687Z,1012.69
2022-08-26T08:54:01.343Z,1012.68
2022-08-26T08:55:01.362Z,1012.69
2022-08-26T08:56:01.011Z,1012.64
2022-08-26T08:57:00.894Z,1012.64
2022-08-26T08:58:02.481Z,1012.6
2022-08-26T08:59:00.607Z,1012.62
2022-08-26T09:00:00.313Z,1012.61
2022-08-26T09:01:00.179Z,1012.59
2022-08-26T09:02:00.674Z,1012.59
2022-08-26T09:03:00.755Z,1012.65
2022-08-26T09:04:00.438Z,1012.64
2022-08-26T09:05:00.845Z,1012.61
2022-08-26T09:06:00.598Z,1012.6
2022-08-26T09:07:01.275Z,1012.59
2022-08-26T09:08:01.098Z,1012.58
2022-08-26T09:09:00.783Z,1012.56
2022-08-26T09:10:00.581Z,1012.57
2022-08-26T09:11:00.473Z,1012.55
2022-08-26T09:12:00.240Z,1012.57
2022-08-26T09:12:59.903Z,1012.6
2022-08-26T09:14:01.038Z,1012.62
2022-08-26T09:15:00.716Z,1012.62
2022-08-26T09:16:00.540Z,1012.63
2022-08-26T09:17:00.267Z,1012.61
2022-08-26T09:18:02.815Z,1012.68
2022-08-26T09:19:01.267Z,1012.61
2022-08-26T09:20:00.946Z,1012.59
2022-08-26T09:21:00.644Z,1012.56
2022-08-26T09:22:00.366Z,1012.51
2022-08-26T09:23:00.072Z,1012.52
2022-08-26T09:23:59.708Z,1012.46
2022-08-26T09:25:01.385Z,1012.48
2022-08-26T09:26:01.214Z,1012.47
2022-08-26T09:27:00.782Z,1012.49
2022-08-26T09:28:00.563Z,1012.46
2022-08-26T09:29:01.508Z,1012.41
2022-08-26T09:30:00.823Z,1012.43
2022-08-26T09:31:00.647Z,1012.4
2022-08-26T09:32:00.421Z,1012.42
2022-08-26T09:33:00.114Z,1012.36
2022-08-26T09:34:00.746Z,1012.38
2022-08-26T09:35:00.899Z,1012.36
2022-08-26T09:36:00.541Z,1012.36
2022-08-26T09:37:00.204Z,1012.32
2022-08-26T09:38:00.983Z,1012.35
2022-08-26T09:39:01.296Z,1012.37
2022-08-26T09:40:01.011Z,1012.33
2022-08-26T09:41:00.788Z,1012.33
2022-08-26T09:42:00.503Z,1012.32
2022-08-26T09:43:00.501Z,1012.33
2022-08-26T09:44:00.744Z,1012.3
2022-08-26T09:45:00.520Z,1012.3
2022-08-26T09:46:00.404Z,1012.33
2022-08-26T09:47:00.135Z,1012.29
2022-08-26T09:48:01.330Z,1012.31
2022-08-26T09:49:00.942Z,1012.28
2022-08-26T09:50:00.731Z,1012.24
2022-08-26T09:51:00.857Z,1012.29
2022-08-26T09:52:00.690Z,1012.26
2022-08-26T09:53:01.059Z,1012.29
2022-08-26T09:54:00.738Z,1012.23
2022-08-26T09:55:00.466Z,1012.25
2022-08-26T09:56:00.161Z,1012.17
2022-08-26T09:56:59.903Z,1012.17
2022-08-26T09:58:07.774Z,1012.17
2022-08-26T09:59:00.595Z,1012.17
2022-08-26T10:00:00.252Z,1012.17
2022-08-26T10:01:00.170Z,1012.14
2022-08-26T10:03:04.164Z,1012.15
2022-08-26T10:04:00.781Z,1012.1
2022-08-26T10:05:04.457Z,1012.11
2022-08-26T10:06:00.666Z,1012.12
2022-08-26T10:07:00.320Z,1012.08
2022-08-26T10:08:05.613Z,1012.09
2022-08-26T10:09:02.727Z,1012.09
2022-08-26T10:10:01.073Z,1012.08
2022-08-26T10:11:00.945Z,1012.09
2022-08-26T10:12:00.775Z,1012.1
2022-08-26T10:13:10.083Z,1012.08
2022-08-26T10:14:01.106Z,1012.02
2022-08-26T10:15:00.820Z,1012.01
2022-08-26T10:16:00.498Z,1012
2022-08-26T10:17:00.732Z,1012.01
2022-08-26T10:18:12.150Z,1012.01
2022-08-26T10:19:01.573Z,1011.98
2022-08-26T10:20:00.826Z,1011.99
2022-08-26T10:21:01.243Z,1011.97
2022-08-26T10:22:00.901Z,1011.99
2022-08-26T10:23:15.888Z,1011.96
2022-08-26T10:24:00.657Z,1012.01
2022-08-26T10:25:00.794Z,1011.97
2022-08-26T10:26:00.690Z,1011.99
2022-08-26T10:27:00.394Z,1011.94
2022-08-26T10:28:00.199Z,1011.9
2022-08-26T10:28:59.818Z,1011.92
2022-08-26T10:30:01.496Z,1011.88
2022-08-26T10:31:01.316Z,1011.88
2022-08-26T10:32:02.516Z,1011.9
2022-08-26T10:33:01.433Z,1011.86
2022-08-26T10:34:01.135Z,1011.83
2022-08-26T10:35:01.805Z,1011.82
2022-08-26T10:36:00.881Z,1011.81
2022-08-26T10:37:16.215Z,1011.8
2022-08-26T10:38:00.539Z,1011.76
2022-08-26T10:39:00.375Z,1011.77
2022-08-26T10:40:00.850Z,1011.76
2022-08-26T10:41:00.792Z,1011.74
2022-08-26T10:42:00.483Z,1011.7
2022-08-26T10:43:01.840Z,1011.71
2022-08-26T10:44:01.617Z,1011.72
2022-08-26T10:45:01.318Z,1011.68
2022-08-26T10:46:01.117Z,1011.68
2022-08-26T10:47:00.732Z,1011.68
2022-08-26T10:48:00.910Z,1011.65
2022-08-26T10:49:00.816Z,1011.67
2022-08-26T10:50:03.156Z,1011.61
2022-08-26T10:51:00.950Z,1011.57
2022-08-26T10:52:01.139Z,1011.55
2022-08-26T10:53:00.942Z,1011.53
2022-08-26T10:54:00.660Z,1011.51
2022-08-26T10:55:01.375Z,1011.47
2022-08-26T10:56:00.967Z,1011.47
2022-08-26T10:57:00.602Z,1011.48
2022-08-26T10:58:00.286Z,1011.47
2022-08-26T10:59:01.295Z,1011.42
2022-08-26T11:00:00.861Z,1011.37
2022-08-26T11:01:01.882Z,1011.35
2022-08-26T11:02:03.962Z,1011.35
2022-08-26T11:03:01.440Z,1011.34
2022-08-26T11:04:01.260Z,1011.27
2022-08-26T11:05:01.034Z,1011.26
2022-08-26T11:06:00.758Z,1011.27
2022-08-26T11:07:00.764Z,1011.21
2022-08-26T11:08:00.647Z,1011.23
2022-08-26T11:09:00.354Z,1011.18
2022-08-26T11:10:00.046Z,1011.13
2022-08-26T11:10:59.885Z,1011.11
2022-08-26T11:12:02.844Z,1011.12
2022-08-26T11:13:00.892Z,1011.06
2022-08-26T11:14:00.567Z,1011
2022-08-26T11:15:00.474Z,1010.99
2022-08-26T11:16:01.117Z,1010.96
2022-08-26T11:17:00.691Z,1010.94
2022-08-26T11:18:00.538Z,1010.93
2022-08-26T11:19:01.012Z,1010.93
2022-08-26T11:20:03.885Z,1010.91
2022-08-26T11:21:01.473Z,1010.86
2022-08-26T11:22:01.154Z,1010.86
2022-08-26T11:23:01.126Z,1010.81
2022-08-26T11:24:00.698Z,1010.82
2022-08-26T11:25:00.886Z,1010.8
2022-08-26T11:26:00.354Z,1010.78
2022-08-26T11:27:00.108Z,1010.77
2022-08-26T11:28:00.625Z,1010.83
2022-08-26T11:29:00.589Z,1010.81
2022-08-26T11:30:01.135Z,1010.83
2022-08-26T11:31:01.001Z,1010.8
2022-08-26T11:32:00.765Z,1010.76
2022-08-26T11:33:01.045Z,1010.77
2022-08-26T11:34:00.821Z,1010.79
2022-08-26T11:35:01.636Z,1010.74
2022-08-26T11:36:01.571Z,1010.74
2022-08-26T11:37:01.214Z,1010.77
2022-08-26T11:38:00.956Z,1010.7
2022-08-26T11:39:02.667Z,1010.69
2022-08-26T11:40:01.107Z,1010.78
2022-08-26T11:41:01.583Z,1010.74
2022-08-26T11:42:00.786Z,1010.74
2022-08-26T11:43:00.459Z,1010.75
2022-08-26T11:44:01.445Z,1010.7
2022-08-26T11:45:05.394Z,1010.69
2022-08-26T11:46:01.363Z,1010.66
2022-08-26T11:47:01.042Z,1010.64
2022-08-26T11:48:00.794Z,1010.68
2022-08-26T11:49:00.513Z,1010.66
2022-08-26T11:50:01.041Z,1010.61
2022-08-26T11:51:01.368Z,1010.67
2022-08-26T11:52:01.550Z,1010.66
2022-08-26T11:53:01.141Z,1010.61
2022-08-26T11:54:01.049Z,1010.64
2022-08-26T11:55:00.857Z,1010.6
2022-08-26T11:56:00.952Z,1010.56
2022-08-26T11:57:03.748Z,1010.57
2022-08-26T11:58:01.637Z,1010.61
2022-08-26T11:59:04.562Z,1010.6
2022-08-26T12:00:01.516Z,1010.63
2022-08-26T12:01:01.403Z,1010.61
2022-08-26T12:02:01.757Z,1010.62
2022-08-26T12:03:01.170Z,1010.6
2022-08-26T12:04:09.431Z,1010.59
2022-08-26T12:05:01.194Z,1010.57
2022-08-26T12:06:00.823Z,1010.5
2022-08-26T12:07:01.058Z,1010.49
2022-08-26T12:08:00.830Z,1010.43
2022-08-26T12:09:10.230Z,1010.4